createdAt,value
2023-04-04T00:00:17.864Z,4.60
2023-04-04T00:02:50.189Z,4.60
2023-04-04T00:05:22.313Z,4.60
2023-04-04T00:07:54.411Z,4.50
2023-04-04T00:10:29.035Z,4.50
2023-04-04T00:13:01.406Z,4.50
2023-04-04T00:15:34.798Z,4.50
2023-04-04T00:18:07.338Z,4.40
2023-04-04T00:20:39.944Z,4.50
2023-04-04T00:23:12.340Z,4.40
2023-04-04T00:25:50.083Z,4.40
2023-04-04T00:28:22.371Z,4.40
2023-04-04T00:30:55.216Z,4.40
2023-04-04T00:33:27.500Z,4.40
2023-04-04T00:35:59.787Z,4.30
2023-04-04T00:38:31.929Z,4.40
2023-04-04T00:41:06.869Z,4.30
2023-04-04T00:43:39.764Z,4.30
2023-04-04T00:46:15.182Z,4.30
2023-04-04T00:48:48.513Z,4.20
2023-04-04T00:51:20.750Z,4.20
2023-04-04T00:56:30.027Z,4.10
2023-04-04T00:59:02.224Z,3.90
2023-04-04T01:01:34.466Z,3.90
2023-04-04T01:04:06.684Z,3.90
2023-04-04T01:06:38.825Z,3.80
2023-04-04T01:09:11.156Z,3.80
2023-04-04T01:11:46.174Z,3.80
2023-04-04T01:14:18.197Z,3.70
2023-04-04T01:16:51.214Z,3.70
2023-04-04T01:19:30.606Z,3.70
2023-04-04T01:22:03.928Z,3.70
2023-04-04T01:24:36.666Z,3.60
2023-04-04T01:27:11.283Z,3.60
2023-04-04T01:29:43.290Z,3.60
2023-04-04T01:32:19.853Z,3.60
2023-04-04T01:34:59.176Z,3.60
2023-04-04T01:37:37.532Z,3.50
2023-04-04T01:40:12.429Z,3.60
2023-04-04T01:42:47.942Z,3.60
2023-04-04T01:45:23.150Z,3.60
2023-04-04T01:47:56.938Z,3.60
2023-04-04T01:50:29.119Z,3.50
2023-04-04T01:53:00.995Z,3.40
2023-04-04T01:55:33.016Z,3.50
2023-04-04T01:58:07.644Z,3.50
2023-04-04T02:00:39.959Z,3.40
2023-04-04T02:03:12.185Z,3.40
2023-04-04T02:05:44.014Z,3.30
2023-04-04T02:08:16.049Z,3.30
2023-04-04T02:10:47.878Z,3.30
2023-04-04T02:13:22.620Z,3.20
2023-04-04T02:15:54.812Z,3.20
2023-04-04T02:18:26.930Z,3.20
2023-04-04T02:20:59.047Z,3.20
2023-04-04T02:23:31.315Z,3.10
2023-04-04T02:26:03.378Z,3.10
2023-04-04T02:28:37.846Z,3.10
2023-04-04T02:31:09.908Z,3.10
2023-04-04T02:33:41.767Z,3.10
2023-04-04T02:36:14.036Z,3.10
2023-04-04T02:38:46.094Z,3.00
2023-04-04T02:41:17.931Z,2.90
2023-04-04T02:43:52.691Z,2.90
2023-04-04T02:46:24.741Z,2.80
2023-04-04T02:48:57.593Z,2.80
2023-04-04T02:51:29.638Z,2.80
2023-04-04T02:54:03.191Z,2.80
2023-04-04T02:56:37.268Z,2.80
2023-04-04T02:59:11.934Z,2.80
2023-04-04T03:01:44.009Z,2.80
2023-04-04T03:04:16.360Z,2.90
2023-04-04T03:06:48.422Z,2.80
2023-04-04T03:09:20.489Z,2.90
2023-04-04T03:11:52.355Z,2.80
2023-04-04T03:14:27.077Z,2.70
2023-04-04T03:16:59.641Z,2.70
2023-04-04T03:19:32.291Z,2.70
2023-04-04T03:22:04.322Z,2.70
2023-04-04T03:24:38.138Z,2.60
2023-04-04T03:27:11.377Z,2.60
2023-04-04T03:29:46.055Z,2.60
2023-04-04T03:32:21.016Z,2.70
2023-04-04T03:34:53.209Z,2.60
2023-04-04T03:37:25.080Z,2.70
2023-04-04T03:39:57.172Z,2.70
2023-04-04T03:42:33.211Z,2.60
2023-04-04T03:45:09.387Z,2.60
2023-04-04T03:47:41.483Z,2.60
2023-04-04T03:50:13.406Z,2.50
2023-04-04T03:52:45.724Z,2.40
2023-04-04T03:55:18.071Z,2.40
2023-04-04T03:57:50.298Z,2.30
2023-04-04T04:00:25.493Z,2.40
2023-04-04T04:02:57.630Z,2.50
2023-04-04T04:05:29.622Z,2.50
2023-04-04T04:08:01.759Z,2.50
2023-04-04T04:10:34.317Z,2.40
2023-04-04T04:13:06.384Z,2.40
2023-04-04T04:15:41.379Z,2.40
2023-04-04T04:18:13.555Z,2.40
2023-04-04T04:20:45.411Z,2.10
2023-04-04T04:23:17.458Z,2.30
2023-04-04T04:25:49.591Z,2.30
2023-04-04T04:28:21.462Z,2.30
2023-04-04T04:30:56.551Z,2.30
2023-04-04T04:33:31.814Z,2.30
2023-04-04T04:36:05.220Z,2.20
2023-04-04T04:38:37.331Z,2.30
2023-04-04T04:41:09.184Z,2.20
2023-04-04T04:43:41.599Z,2.20
2023-04-04T04:46:16.310Z,2.20
2023-04-04T04:48:48.648Z,2.20
2023-04-04T04:51:20.732Z,2.20
2023-04-04T04:53:52.850Z,2.20
2023-04-04T04:56:24.801Z,2.20
2023-04-04T04:58:57.725Z,2.20
2023-04-04T05:01:32.670Z,3.10
2023-04-04T05:04:05.848Z,2.10
2023-04-04T05:06:38.989Z,2.10
2023-04-04T05:09:11.853Z,2.10
2023-04-04T05:11:43.992Z,2.10
2023-04-04T05:14:16.120Z,2.10
2023-04-04T05:16:50.909Z,2.10
2023-04-04T05:19:23.099Z,2.10
2023-04-04T05:21:54.981Z,2.10
2023-04-04T05:24:27.715Z,2.00
2023-04-04T05:26:59.820Z,2.00
2023-04-04T05:29:31.958Z,2.00
2023-04-04T05:32:06.697Z,2.00
2023-04-04T05:34:38.819Z,2.00
2023-04-04T05:37:11.013Z,2.00
2023-04-04T05:39:42.907Z,2.00
2023-04-04T05:42:14.966Z,2.00
2023-04-04T05:44:47.058Z,2.00
2023-04-04T05:47:22.198Z,2.00
2023-04-04T05:49:54.313Z,2.00
2023-04-04T05:52:26.782Z,2.00
2023-04-04T05:54:58.971Z,2.00
2023-04-04T05:57:30.825Z,2.10
2023-04-04T06:00:03.686Z,1.90
2023-04-04T06:02:39.044Z,2.10
2023-04-04T06:05:11.448Z,2.10
2023-04-04T06:07:43.490Z,2.10
2023-04-04T06:10:15.708Z,2.10
2023-04-04T06:12:47.840Z,2.20
2023-04-04T06:15:19.729Z,2.20
2023-04-04T06:17:54.522Z,2.20
2023-04-04T06:20:26.802Z,2.20
2023-04-04T06:23:01.153Z,2.20
2023-04-04T06:25:34.702Z,2.30
2023-04-04T06:28:06.792Z,2.30
2023-04-04T06:30:39.577Z,2.30
2023-04-04T06:33:14.485Z,2.40
2023-04-04T06:35:46.551Z,2.40
2023-04-04T06:38:18.644Z,2.40
2023-04-04T06:40:50.537Z,2.50
2023-04-04T06:43:23.576Z,2.50
2023-04-04T06:45:56.024Z,2.60
2023-04-04T06:48:30.858Z,2.60
2023-04-04T06:51:06.143Z,2.60
2023-04-04T06:53:38.491Z,2.60
2023-04-04T06:56:10.943Z,2.70
2023-04-04T06:58:43.283Z,2.60
2023-04-04T07:01:15.629Z,2.60
2023-04-04T07:03:53.154Z,2.70
2023-04-04T07:06:26.817Z,2.70
2023-04-04T07:08:58.929Z,2.80
2023-04-04T07:11:30.966Z,2.80
2023-04-04T07:14:03.047Z,2.90
2023-04-04T07:16:36.676Z,2.90
2023-04-04T07:19:11.377Z,2.90
2023-04-04T07:21:43.543Z,3.00
2023-04-04T07:24:15.808Z,3.00
2023-04-04T07:26:47.928Z,3.10
2023-04-04T07:29:21.526Z,3.10
2023-04-04T07:31:54.182Z,3.20
2023-04-04T07:34:30.036Z,3.20
2023-04-04T07:37:02.134Z,3.20
2023-04-04T07:39:34.004Z,3.30
2023-04-04T07:42:06.828Z,3.40
2023-04-04T07:44:38.941Z,3.40
2023-04-04T07:47:11.615Z,3.40
2023-04-04T07:49:46.609Z,3.50
2023-04-04T07:52:18.648Z,3.60
2023-04-04T07:54:50.645Z,3.60
2023-04-04T07:57:22.722Z,3.70
2023-04-04T07:59:54.771Z,3.70
2023-04-04T08:02:27.231Z,3.80
2023-04-04T08:05:01.979Z,3.80
2023-04-04T08:07:34.095Z,3.90
2023-04-04T08:10:08.238Z,4.00
2023-04-04T08:12:40.371Z,4.00
2023-04-04T08:15:12.561Z,4.10
2023-04-04T08:17:44.746Z,4.20
2023-04-04T08:20:19.481Z,4.20
2023-04-04T08:22:51.575Z,4.30
2023-04-04T08:25:24.155Z,4.40
2023-04-04T08:27:56.603Z,4.40
2023-04-04T08:30:29.736Z,4.50
2023-04-04T08:33:04.717Z,4.50
2023-04-04T08:35:40.911Z,4.60
2023-04-04T08:38:12.989Z,4.70
2023-04-04T08:40:48.108Z,4.70
2023-04-04T08:43:21.755Z,4.80
2023-04-04T08:45:55.089Z,4.80
2023-04-04T08:48:30.043Z,4.90
2023-04-04T08:51:05.186Z,5.00
2023-04-04T08:53:38.812Z,5.10
2023-04-04T08:56:11.266Z,5.10
2023-04-04T08:58:43.408Z,5.20
2023-04-04T09:01:16.650Z,5.30
2023-04-04T09:03:51.063Z,5.30
2023-04-04T09:06:28.074Z,5.40
2023-04-04T09:09:01.662Z,5.50
2023-04-04T09:11:35.050Z,5.50
2023-04-04T09:14:07.309Z,5.60
2023-04-04T09:16:39.477Z,5.70
2023-04-04T09:19:11.545Z,5.70
2023-04-04T09:21:49.794Z,5.80
2023-04-04T09:24:21.640Z,5.80
2023-04-04T09:26:54.372Z,5.90
2023-04-04T09:29:26.477Z,5.90
2023-04-04T09:31:58.664Z,6.00
2023-04-04T09:34:31.276Z,6.00
2023-04-04T09:37:06.403Z,6.10
2023-04-04T09:39:39.348Z,6.20
2023-04-04T09:42:12.469Z,6.30
2023-04-04T09:44:44.799Z,6.30
2023-04-04T09:50:07.645Z,6.40
2023-04-04T09:52:44.455Z,6.50
2023-04-04T09:55:17.359Z,6.50
2023-04-04T09:57:49.470Z,6.60
2023-04-04T10:00:21.711Z,6.60
2023-04-04T10:02:58.336Z,6.70
2023-04-04T10:05:31.066Z,6.70
2023-04-04T10:08:17.422Z,6.80
2023-04-04T10:11:02.620Z,6.90
2023-04-04T10:13:42.373Z,6.90
2023-04-04T10:16:15.498Z,6.90
2023-04-04T10:18:48.560Z,7.00
2023-04-04T10:21:21.416Z,7.10
2023-04-04T10:23:58.893Z,7.10
2023-04-04T10:26:30.967Z,7.20
2023-04-04T10:29:05.152Z,7.20
2023-04-04T10:31:41.590Z,7.20
2023-04-04T10:34:20.880Z,7.30
2023-04-04T10:36:58.409Z,7.40
2023-04-04T10:39:35.296Z,7.40
2023-04-04T10:42:08.026Z,7.50
2023-04-04T10:44:40.728Z,7.50
2023-04-04T10:47:16.960Z,7.60
2023-04-04T10:49:50.878Z,7.60
2023-04-04T10:52:24.869Z,7.70
2023-04-04T10:55:06.457Z,7.80
2023-04-04T10:57:41.952Z,7.80
2023-04-04T11:00:18.888Z,7.90
2023-04-04T11:02:54.656Z,7.90
2023-04-04T11:05:27.126Z,8.00
2023-04-04T11:08:07.470Z,8.00
2023-04-04T11:10:44.817Z,8.10
2023-04-04T11:13:18.432Z,8.20
2023-04-04T11:15:56.887Z,8.20
2023-04-04T11:18:47.251Z,8.30
2023-04-04T11:21:20.834Z,8.30
2023-04-04T11:24:14.885Z,8.40
2023-04-04T11:26:49.928Z,8.50
2023-04-04T11:29:54.655Z,8.50
2023-04-04T11:32:52.812Z,8.60
2023-04-04T11:35:29.225Z,8.70
2023-04-04T11:38:02.191Z,8.80
2023-04-04T11:40:41.835Z,8.90
2023-04-04T11:43:17.187Z,9.00
2023-04-04T11:45:49.654Z,9.10
2023-04-04T11:48:23.901Z,9.20
2023-04-04T11:50:57.567Z,9.30
2023-04-04T11:53:32.696Z,9.40
2023-04-04T11:56:04.867Z,9.60
2023-04-04T11:58:40.786Z,9.80
2023-04-04T12:01:12.878Z,10.00
2023-04-04T12:03:45.177Z,10.30
2023-04-04T12:06:18.200Z,10.60
2023-04-04T12:08:50.350Z,11.00
2023-04-04T12:19:51.525Z,12.50
2023-04-04T12:21:08.703Z,13.20
2023-04-04T12:23:47.109Z,13.80
2023-04-04T12:26:19.705Z,14.50
2023-04-04T12:28:55.433Z,14.70
2023-04-04T12:31:28.375Z,15.20
2023-04-04T12:34:03.639Z,15.60
2023-04-04T12:36:38.328Z,16.00
2023-04-04T12:39:12.354Z,16.40
2023-04-04T12:44:42.560Z,17.30
2023-04-04T12:51:21.600Z,18.20
2023-04-04T13:21:13.805Z,21.30
2023-04-04T13:26:21.760Z,21.60
2023-04-04T13:28:53.847Z,21.60
2023-04-04T13:31:26.561Z,21.50
2023-04-04T13:33:58.741Z,21.60
2023-04-04T13:36:31.472Z,21.60
2023-04-04T13:39:06.124Z,21.70
2023-04-04T13:41:38.228Z,21.90
2023-04-04T13:44:10.301Z,22.00
2023-04-04T13:46:42.660Z,22.00
2023-04-04T13:49:14.787Z,21.90
2023-04-04T13:51:48.222Z,21.80
2023-04-04T13:54:22.855Z,22.00
2023-04-04T13:56:55.824Z,22.20
2023-04-04T13:59:27.991Z,22.30
2023-04-04T14:02:00.170Z,22.30
2023-04-04T14:04:32.315Z,22.20
2023-04-04T14:07:04.378Z,22.20
2023-04-04T14:09:39.368Z,22.20
2023-04-04T14:12:11.451Z,22.10
2023-04-04T14:14:43.480Z,22.00
2023-04-04T14:17:15.579Z,22.00
2023-04-04T14:19:47.606Z,22.00
2023-04-04T14:22:19.673Z,21.90
2023-04-04T14:24:54.297Z,21.70
2023-04-04T14:27:26.483Z,21.60
2023-04-04T14:29:58.616Z,21.30
2023-04-04T14:32:31.813Z,21.10
2023-04-04T14:35:05.364Z,20.90
2023-04-04T14:37:37.756Z,20.90
2023-04-04T14:40:13.361Z,20.70
2023-04-04T14:42:45.393Z,20.60
2023-04-04T14:45:17.836Z,20.60
2023-04-04T14:47:49.861Z,20.60
2023-04-04T14:50:21.960Z,20.70
2023-04-04T14:52:56.615Z,20.60
2023-04-04T14:55:31.681Z,20.40
2023-04-04T14:58:03.796Z,20.20
2023-04-04T15:00:36.308Z,20.00
2023-04-04T15:03:08.504Z,19.90
2023-04-04T15:05:42.592Z,19.80
2023-04-04T15:08:14.885Z,19.80
2023-04-04T15:10:49.505Z,19.70
2023-04-04T15:13:21.534Z,19.60
2023-04-04T15:15:53.626Z,19.40
2023-04-04T15:18:25.842Z,19.40
2023-04-04T15:20:58.722Z,19.30
2023-04-04T15:23:31.371Z,19.20
2023-04-04T15:26:06.491Z,19.10
2023-04-04T15:28:38.532Z,18.80
2023-04-04T15:31:14.116Z,18.50
2023-04-04T15:33:46.181Z,18.40
2023-04-04T15:36:18.471Z,18.30
2023-04-04T15:38:50.772Z,18.30
2023-04-04T15:41:25.447Z,18.30
2023-04-04T15:43:57.679Z,18.30
2023-04-04T15:46:30.645Z,18.20
2023-04-04T15:49:02.913Z,18.10
2023-04-04T15:51:36.355Z,18.00
2023-04-04T15:54:08.394Z,17.80
2023-04-04T15:56:43.087Z,17.70
2023-04-04T15:59:15.127Z,17.50
2023-04-04T16:01:47.197Z,17.30
2023-04-04T16:04:19.417Z,17.10
2023-04-04T16:06:51.468Z,17.00
2023-04-04T16:09:23.639Z,16.80
2023-04-04T16:11:58.471Z,16.70
2023-04-04T16:14:30.586Z,16.50
2023-04-04T16:17:03.330Z,16.30
2023-04-04T16:19:35.382Z,16.10
2023-04-04T16:22:08.081Z,15.90
2023-04-04T16:24:40.595Z,15.80
2023-04-04T16:27:15.296Z,15.70
2023-04-04T16:29:47.301Z,15.60
2023-04-04T16:32:19.351Z,15.50
2023-04-04T16:34:51.392Z,15.40
2023-04-04T16:37:23.644Z,15.20
2023-04-04T16:39:56.660Z,15.00
2023-04-04T16:42:31.428Z,14.80
2023-04-04T16:45:03.974Z,14.60
2023-04-04T16:47:36.797Z,14.50
2023-04-04T16:50:09.933Z,14.30
2023-04-04T16:52:42.042Z,14.20
2023-04-04T16:55:14.112Z,14.00
2023-04-04T16:57:48.710Z,13.90
2023-04-04T17:00:21.689Z,13.80
2023-04-04T17:02:53.862Z,13.60
2023-04-04T17:05:26.006Z,13.50
2023-04-04T17:07:58.038Z,13.30
2023-04-04T17:10:30.219Z,13.20
2023-04-04T17:13:06.590Z,13.00
2023-04-04T17:15:38.692Z,12.90
2023-04-04T17:18:10.806Z,12.80
2023-04-04T17:20:43.777Z,12.70
2023-04-04T17:23:16.195Z,12.60
2023-04-04T17:25:48.228Z,12.50
2023-04-04T17:28:22.929Z,12.40
2023-04-04T17:30:54.970Z,12.30
2023-04-04T17:33:27.592Z,12.20
2023-04-04T17:35:59.639Z,12.20
2023-04-04T17:38:31.963Z,12.10
2023-04-04T17:41:04.473Z,12.10
2023-04-04T17:43:39.150Z,11.90
2023-04-04T17:46:11.212Z,11.90
2023-04-04T17:48:43.567Z,11.80
2023-04-04T17:51:15.913Z,11.70
2023-04-04T17:53:48.019Z,11.60
2023-04-04T17:56:20.078Z,11.50
2023-04-04T17:58:55.694Z,11.40
2023-04-04T18:01:29.532Z,11.30
2023-04-04T18:04:01.740Z,11.20
2023-04-04T18:06:33.826Z,11.10
2023-04-04T18:09:05.870Z,11.00
2023-04-04T18:11:39.972Z,10.90
2023-04-04T18:14:14.987Z,10.80
2023-04-04T18:16:47.700Z,10.70
2023-04-04T18:19:19.749Z,10.60
2023-04-04T18:21:51.818Z,10.50
2023-04-04T18:24:26.079Z,10.40
2023-04-04T18:26:58.133Z,10.30
2023-04-04T18:29:32.809Z,10.20
2023-04-04T18:32:05.288Z,10.10
2023-04-04T18:34:37.363Z,10.10
2023-04-04T18:37:09.499Z,10.10
2023-04-04T18:39:41.541Z,9.90
2023-04-04T18:42:13.724Z,9.80
2023-04-04T18:44:48.423Z,9.80
2023-04-04T18:47:21.539Z,9.70
2023-04-04T18:49:53.834Z,9.60
2023-04-04T18:52:26.003Z,9.60
2023-04-04T18:54:58.202Z,9.60
2023-04-04T18:57:30.302Z,9.40
2023-04-04T19:00:06.907Z,9.40
2023-04-04T19:02:40.809Z,9.40
2023-04-04T19:05:16.457Z,9.40
2023-04-04T19:07:51.216Z,9.30
2023-04-04T19:10:23.421Z,9.30
2023-04-04T19:12:55.524Z,9.50
2023-04-04T19:15:30.545Z,9.70
2023-04-04T19:18:04.354Z,9.90
2023-04-04T19:20:36.774Z,10.10
2023-04-04T19:23:08.914Z,10.40
2023-04-04T19:25:41.150Z,10.60
2023-04-04T19:28:13.393Z,10.80
2023-04-04T19:30:49.191Z,11.00
2023-04-04T19:33:23.304Z,11.20
2023-04-04T19:35:58.981Z,11.40
2023-04-04T19:38:33.711Z,11.50
2023-04-04T19:41:11.417Z,11.60
2023-04-04T19:43:45.678Z,11.70
2023-04-04T19:46:25.796Z,11.80
2023-04-04T19:48:58.987Z,11.90
2023-04-04T19:51:42.783Z,11.90
2023-04-04T19:54:17.924Z,11.90
2023-04-04T19:56:50.625Z,12.00
2023-04-04T19:59:59.183Z,12.00
2023-04-04T20:02:52.637Z,12.00
2023-04-04T20:05:55.039Z,12.00
2023-04-04T20:08:44.125Z,12.00
2023-04-04T20:11:17.407Z,12.00
2023-04-04T20:13:50.685Z,11.90
2023-04-04T20:16:23.269Z,11.90
2023-04-04T20:18:59.004Z,11.90
2023-04-04T20:21:32.110Z,11.90
2023-04-04T20:24:08.558Z,11.80
2023-04-04T20:26:59.840Z,11.80
2023-04-04T20:29:33.036Z,11.80
2023-04-04T20:32:08.426Z,11.80
2023-04-04T20:34:45.789Z,11.80
2023-04-04T20:37:22.324Z,11.70
2023-04-04T20:39:55.834Z,11.70
2023-04-04T20:42:39.896Z,11.70
2023-04-04T20:45:40.212Z,11.60
2023-04-04T20:48:37.638Z,11.60
2023-04-04T20:51:23.918Z,11.60
2023-04-04T20:53:58.344Z,11.60
2023-04-04T20:56:47.192Z,11.50
2023-04-04T20:59:33.934Z,11.50
2023-04-04T21:02:15.470Z,11.50
2023-04-04T21:04:49.852Z,11.50
2023-04-04T21:07:40.801Z,11.40
2023-04-04T21:10:23.699Z,11.40
2023-04-04T21:12:57.696Z,11.40
2023-04-04T21:15:33.795Z,11.40
2023-04-04T21:18:08.629Z,11.30
2023-04-04T21:21:06.647Z,11.30
2023-04-04T21:23:49.432Z,11.20
2023-04-04T21:26:30.370Z,11.10
2023-04-04T21:29:04.544Z,11.10
2023-04-04T21:31:38.708Z,11.10
2023-04-04T21:34:13.725Z,11.00
2023-04-04T21:36:46.634Z,11.00
2023-04-04T21:39:25.672Z,11.00
2023-04-04T21:41:59.167Z,11.00
2023-04-04T21:44:31.593Z,10.90
2023-04-04T21:47:03.688Z,10.90
2023-04-04T21:49:35.739Z,10.80
2023-04-04T21:52:07.777Z,10.80
2023-04-04T21:54:42.369Z,10.70
2023-04-04T21:57:14.469Z,10.70
2023-04-04T21:59:46.505Z,10.50
2023-04-04T22:02:18.557Z,10.40
2023-04-04T22:04:50.659Z,10.30
2023-04-04T22:07:22.816Z,10.10
2023-04-04T22:09:58.875Z,10.00
2023-04-04T22:12:33.318Z,9.80
2023-04-04T22:15:06.814Z,9.50
2023-04-04T22:17:39.037Z,9.20
2023-04-04T22:20:13.966Z,8.90
2023-04-04T22:22:46.133Z,8.60
2023-04-04T22:25:20.752Z,8.30
2023-04-04T22:27:53.813Z,8.00
2023-04-04T22:30:26.753Z,7.80
2023-04-04T22:35:36.689Z,7.20
2023-04-04T22:38:08.736Z,7.10
2023-04-04T22:40:43.389Z,6.90
2023-04-04T22:45:48.425Z,6.50
2023-04-04T22:48:23.162Z,6.40
2023-04-04T22:50:58.910Z,6.20
2023-04-04T22:53:31.105Z,6.10
2023-04-04T22:56:06.232Z,6.00
2023-04-04T22:58:38.351Z,5.90
2023-04-04T23:01:10.859Z,5.70
2023-04-04T23:03:44.078Z,5.70
2023-04-04T23:06:16.140Z,5.60
2023-04-04T23:08:52.141Z,5.50
2023-04-04T23:11:27.618Z,5.40
2023-04-04T23:14:00.570Z,5.30
2023-04-04T23:16:35.632Z,5.20
2023-04-04T23:19:07.770Z,5.20
2023-04-04T23:21:39.906Z,5.10
2023-04-04T23:24:12.015Z,5.00
2023-04-04T23:26:46.638Z,5.00
2023-04-04T23:29:18.936Z,4.90
2023-04-04T23:31:51.072Z,4.90
2023-04-04T23:34:23.197Z,4.80
2023-04-04T23:36:55.436Z,4.80
2023-04-04T23:39:27.919Z,4.70
2023-04-04T23:42:02.822Z,4.70
2023-04-04T23:44:34.821Z,4.70
2023-04-04T23:47:06.676Z,4.60
2023-04-04T23:49:38.732Z,4.60
2023-04-04T23:52:10.724Z,4.50
2023-04-04T23:54:42.760Z,4.50
2023-04-04T23:57:17.244Z,4.40
2023-04-04T23:59:49.269Z,4.30
